Time;durP1;ratioP1;P1;durP2;ratioP2;P2;SDS_P1;SDS_P2;PMS_P1;PMS_P2;Temp;Humidity;BMP_temperature;BMP_pressure;BME280_temperature;BME280_humidity;BME280_pressure;Samples;Min_cycle;Max_cycle;Signal;HPM_P1;HPM_P2
2022/08/12 00:42:56;;;;;;;5.53;2.00;;;;;;;32.57;31.07;102065.81;5115447;28;20043;-75
2022/08/12 00:45:21;;;;;;;4.88;2.10;;;;;;;32.90;30.77;102058.53;5106058;28;20560;-75
2022/08/12 00:47:47;;;;;;;3.90;2.50;;;;;;;32.76;30.87;102067.84;5087098;28;20130;-75
2022/08/12 00:50:18;;;;;;;4.45;1.95;;;;;;;32.74;31.38;102058.97;5107819;28;20062;-75
2022/08/12 00:52:49;;;;;;;4.57;2.17;;;;;;;32.44;31.34;102063.31;5095231;28;20092;-75
2022/08/12 00:55:16;;;;;;;3.42;2.28;;;;;;;32.42;31.48;102065.25;5096444;28;20068;-75
2022/08/12 00:57:47;;;;;;;2.50;2.10;;;;;;;32.76;31.09;102054.31;5082892;28;20114;-75
2022/08/12 01:00:20;;;;;;;2.92;2.40;;;;;;;32.52;31.10;102055.41;5087645;28;20031;-75
2022/08/12 01:02:51;;;;;;;4.13;2.20;;;;;;;32.30;31.31;102064.44;5103409;28;20030;-75
2022/08/12 01:13:57;;;;;;;4.55;2.50;;;;;;;31.72;32.91;102067.38;5112715;28;20407;-75
2022/08/12 01:16:24;;;;;;;3.30;2.28;;;;;;;32.89;30.57;102052.28;5088646;28;20444;-75
2022/08/12 01:18:53;;;;;;;3.75;2.47;;;;;;;32.26;31.37;102054.88;5096048;28;20020;-75
2022/08/12 01:21:55;;;;;;;5.22;2.25;;;;;;;32.46;31.65;102056.75;5083797;28;20030;-75
2022/08/12 01:24:46;;;;;;;4.10;2.25;;;;;;;32.78;31.27;102050.50;5091417;28;20039;-75
2022/08/12 01:27:13;;;;;;;6.63;2.20;;;;;;;32.51;31.02;102053.66;5075005;28;20042;-75
2022/08/12 01:29:42;;;;;;;3.08;1.98;;;;;;;32.42;31.21;102060.69;5079729;28;20024;-75
2022/08/12 01:32:10;;;;;;;5.82;1.98;;;;;;;31.90;31.84;102056.91;5079108;28;20032;-75
2022/08/12 01:34:40;;;;;;;3.85;2.30;;;;;;;31.72;32.39;102051.16;5075282;28;20111;-75
2022/08/12 01:37:08;;;;;;;6.68;2.60;;;;;;;32.40;31.37;102067.25;5075424;28;20024;-75
2022/08/12 01:39:56;;;;;;;5.03;2.70;;;;;;;32.56;31.46;102070.38;5078629;28;20115;-76
2022/08/12 01:42:22;;;;;;;3.13;2.33;;;;;;;32.50;31.21;102065.47;5084905;28;20041;-75
2022/08/12 01:44:54;;;;;;;5.32;2.40;;;;;;;32.19;32.25;102065.38;5093108;28;20127;-75
2022/08/12 01:47:57;;;;;;;3.67;2.30;;;;;;;32.41;31.47;102069.81;5093154;28;20019;-75
2022/08/12 01:51:01;;;;;;;6.20;2.30;;;;;;;31.96;32.29;102059.97;5099050;28;20027;-75
2022/08/12 01:53:56;;;;;;;4.63;2.50;;;;;;;32.47;31.69;102068.44;5088713;28;20043;-75
2022/08/12 01:56:25;;;;;;;5.78;2.53;;;;;;;32.12;31.89;102064.09;5107565;28;20139;-75
2022/08/12 02:01:42;;;;;;;4.35;2.70;;;;;;;31.43;33.24;102063.31;5099368;28;20561;-75
2022/08/12 02:13:45;;;;;;;5.43;2.72;;;;;;;32.14;31.88;102045.91;5113646;28;20456;-76
2022/08/12 02:16:30;;;;;;;6.07;2.67;;;;;;;31.52;33.49;102041.94;5083165;28;20042;-75
2022/08/12 02:19:27;;;;;;;6.78;3.00;;;;;;;31.84;32.48;102043.91;5105169;28;20031;-74
2022/08/12 02:22:20;;;;;;;7.28;2.70;;;;;;;31.73;33.03;102039.38;5091298;28;20035;-75
2022/08/12 02:24:49;;;;;;;4.45;3.00;;;;;;;30.79;34.39;102048.47;5074058;28;20036;-75
2022/08/12 02:27:17;;;;;;;8.27;2.92;;;;;;;31.20;33.88;102032.75;5106234;28;20028;-74
2022/08/12 02:29:44;;;;;;;3.95;2.92;;;;;;;31.52;32.79;102034.72;5108522;28;20035;-75
2022/08/12 02:32:10;;;;;;;5.32;2.78;;;;;;;31.58;32.79;102028.78;5107156;28;20032;-75
2022/08/12 02:34:36;;;;;;;4.07;2.90;;;;;;;31.13;33.86;102031.50;5093659;28;20111;-75
2022/08/12 02:37:03;;;;;;;5.97;3.10;;;;;;;30.68;34.01;102039.47;5101357;28;20502;-75
2022/08/12 02:39:32;;;;;;;9.00;2.67;;;;;;;30.99;33.91;102026.31;5104785;28;20127;-75
2022/08/12 02:42:00;;;;;;;4.68;3.08;;;;;;;31.19;33.59;102033.72;5109417;28;20027;-75
2022/08/12 02:44:29;;;;;;;3.13;2.70;;;;;;;31.46;33.40;102030.66;5111853;28;20031;-75
2022/08/12 02:47:02;;;;;;;3.72;2.88;;;;;;;31.13;33.47;102023.41;5079894;28;20082;-75
2022/08/12 02:49:40;;;;;;;5.65;3.25;;;;;;;30.83;34.49;102027.53;5110056;28;20031;-75
2022/08/12 02:52:08;;;;;;;4.90;2.83;;;;;;;31.12;33.74;102029.81;5106443;28;20036;-75
2022/08/12 02:54:35;;;;;;;5.13;3.42;;;;;;;30.41;34.89;102029.81;5094509;28;20015;-75
2022/08/12 02:57:01;;;;;;;5.40;2.90;;;;;;;30.90;33.80;102031.44;5089277;28;20036;-75
2022/08/12 02:59:28;;;;;;;5.40;3.00;;;;;;;31.28;33.44;102033.00;5073202;28;20054;-75
2022/08/12 03:01:58;;;;;;;4.13;3.10;;;;;;;30.72;34.00;102033.75;5087365;28;20023;-75
2022/08/12 03:04:45;;;;;;;4.32;3.30;;;;;;;30.88;33.81;102022.59;5080108;28;20031;-74
2022/08/12 03:07:16;;;;;;;4.35;3.10;;;;;;;31.34;32.93;102025.38;5106793;28;20040;-75
2022/08/12 03:09:50;;;;;;;8.85;3.38;;;;;;;30.43;34.60;102025.13;5093082;28;20023;-74
2022/08/12 03:12:19;;;;;;;4.50;3.35;;;;;;;30.99;33.44;102012.81;5109444;28;20502;-75
2022/08/12 03:14:45;;;;;;;6.55;3.08;;;;;;;31.45;33.16;102025.38;5093965;28;20088;-75
2022/08/12 03:17:23;;;;;;;5.53;3.25;;;;;;;31.36;33.37;102013.47;5082172;28;20036;-75
2022/08/12 03:19:52;;;;;;;6.57;3.80;;;;;;;31.41;32.81;102010.41;5090049;28;20035;-75
2022/08/12 03:22:22;;;;;;;5.13;3.45;;;;;;;31.41;33.44;102010.41;5109280;28;20031;-75
2022/08/12 03:24:49;;;;;;;6.50;3.70;;;;;;;30.06;35.40;102011.75;5093925;28;20020;-75
2022/08/12 03:27:15;;;;;;;13.88;5.80;;;;;;;31.36;33.12;102012.63;5078922;28;20055;-75
2022/08/12 03:29:45;;;;;;;6.18;3.75;;;;;;;30.96;33.99;102001.25;5078408;28;20088;-76
2022/08/12 03:32:11;;;;;;;5.85;3.72;;;;;;;30.66;34.74;102011.78;5100357;28;20182;-75
2022/08/12 03:34:36;;;;;;;5.93;4.25;;;;;;;30.49;34.89;102002.25;5089771;28;20115;-76
2022/08/12 03:37:03;;;;;;;7.82;3.80;;;;;;;30.33;34.95;101999.88;5089267;28;20347;-75
2022/08/12 03:42:10;;;;;;;6.65;3.90;;;;;;;30.27;35.77;102004.75;5089765;28;20131;-75
2022/08/12 04:01:54;;;;;;;6.82;3.58;;;;;;;30.67;34.79;102005.41;5099032;28;20043;-75
2022/08/12 04:04:22;;;;;;;5.38;4.07;;;;;;;30.78;34.74;102010.81;5110867;28;20020;-75
2022/08/12 04:06:48;;;;;;;6.47;4.13;;;;;;;30.16;35.52;102004.69;5102578;28;20122;-75
2022/08/12 04:09:17;;;;;;;7.80;4.18;;;;;;;29.98;36.05;102006.94;5072287;28;20119;-76
2022/08/12 04:14:28;;;;;;;6.25;4.00;;;;;;;29.69;36.40;102004.53;5107332;28;20030;-75
2022/08/12 04:16:55;;;;;;;4.63;3.63;;;;;;;29.82;36.33;102004.47;5092411;28;20028;-76
2022/08/12 04:19:23;;;;;;;6.05;4.00;;;;;;;29.59;37.46;102008.84;5093357;28;20469;-76
2022/08/12 04:21:48;;;;;;;5.95;4.18;;;;;;;29.88;36.69;102004.06;5084985;28;20464;-76
2022/08/12 04:24:17;;;;;;;6.43;4.07;;;;;;;29.88;36.84;102008.56;5079349;28;20107;-76
2022/08/12 04:26:42;;;;;;;5.00;3.72;;;;;;;30.44;35.64;102002.63;5093386;28;20043;-76
2022/08/12 04:29:09;;;;;;;5.97;4.20;;;;;;;30.21;35.54;102004.34;5084487;28;20317;-75
2022/08/12 04:31:34;;;;;;;12.40;4.35;;;;;;;29.92;36.35;102002.88;5081107;28;20032;-76
2022/08/12 04:34:01;;;;;;;7.25;4.22;;;;;;;29.03;37.84;102011.91;5079646;28;20089;-76
2022/08/12 04:36:27;;;;;;;5.85;4.53;;;;;;;30.11;35.62;102009.56;5091217;28;20053;-76
2022/08/12 04:38:54;;;;;;;7.68;4.32;;;;;;;29.69;36.46;102000.97;5104153;28;20481;-76
2022/08/12 04:41:20;;;;;;;8.88;5.10;;;;;;;29.61;36.77;102001.53;5092778;28;20055;-75
2022/08/12 04:43:46;;;;;;;6.00;4.07;;;;;;;30.14;36.32;102003.09;5090437;28;20020;-76
2022/08/12 04:46:12;;;;;;;7.18;4.13;;;;;;;30.44;35.38;101994.53;5090831;28;20146;-75
2022/08/12 04:48:38;;;;;;;8.10;4.97;;;;;;;30.51;35.27;102000.31;5072682;28;20466;-76
2022/08/12 04:51:04;;;;;;;6.80;4.90;;;;;;;30.66;34.60;102006.38;5076914;28;20053;-75
2022/08/12 04:53:30;;;;;;;9.35;4.78;;;;;;;30.57;34.53;101995.31;5091108;28;20024;-76
2022/08/12 04:55:56;;;;;;;8.13;6.47;;;;;;;30.60;35.25;102005.88;5087862;28;20065;-76
2022/08/12 04:58:21;;;;;;;29.08;13.95;;;;;;;30.30;35.75;101998.25;5072229;28;20050;-76
2022/08/12 05:00:47;;;;;;;18.85;8.50;;;;;;;29.95;35.84;101999.06;5075106;28;20452;-76
2022/08/12 05:03:12;;;;;;;32.70;13.13;;;;;;;29.81;36.14;102002.75;5075547;28;20027;-76
2022/08/12 05:05:39;;;;;;;15.38;7.47;;;;;;;29.43;36.99;102009.13;5078856;28;20020;-76
2022/08/12 05:08:17;;;;;;;13.32;5.63;;;;;;;30.41;35.54;102005.53;5082541;28;20066;-76
2022/08/12 05:10:47;;;;;;;9.35;5.55;;;;;;;29.92;36.09;102010.06;5083016;28;20035;-76
2022/08/12 05:13:19;;;;;;;10.40;5.85;;;;;;;30.48;35.13;102012.19;5095666;28;20039;-75
2022/08/12 05:15:45;;;;;;;9.35;5.80;;;;;;;30.20;35.68;102014.28;5086197;28;20115;-76
2022/08/12 05:18:11;;;;;;;8.55;4.45;;;;;;;30.51;35.06;102017.34;5075671;28;20122;-75
2022/08/12 05:20:38;;;;;;;8.27;4.82;;;;;;;30.47;35.04;102013.16;5078119;28;20028;-76
2022/08/12 05:23:07;;;;;;;6.55;4.53;;;;;;;30.37;35.85;102014.84;5113010;28;20434;-75
2022/08/12 05:25:33;;;;;;;8.70;5.60;;;;;;;30.19;35.85;102012.53;5114740;28;20036;-76
2022/08/12 05:27:59;;;;;;;7.32;4.95;;;;;;;30.06;36.09;102017.13;5112585;28;20081;-76
2022/08/12 05:30:25;;;;;;;6.45;4.20;;;;;;;30.37;35.85;102009.44;5092135;28;20058;-75
2022/08/12 05:32:50;;;;;;;13.00;4.72;;;;;;;30.10;35.94;102013.22;5081216;28;20032;-75
2022/08/12 05:35:16;;;;;;;7.90;5.22;;;;;;;30.17;36.07;102014.50;5075582;28;20502;-76
2022/08/12 05:37:41;;;;;;;8.10;4.72;;;;;;;30.69;35.31;102019.63;5107888;28;20027;-76
2022/08/12 05:40:08;;;;;;;7.88;4.68;;;;;;;30.62;35.37;102012.03;5084956;28;20040;-76
2022/08/12 05:42:33;;;;;;;5.32;3.78;;;;;;;30.71;35.30;102023.91;5079529;28;20060;-76
2022/08/12 05:44:59;;;;;;;5.57;4.25;;;;;;;30.58;35.28;102026.72;5079196;28;20040;-75
2022/08/12 05:47:24;;;;;;;5.38;3.78;;;;;;;30.91;34.95;102030.47;5090951;28;20032;-76
2022/08/12 05:49:49;;;;;;;6.97;3.85;;;;;;;30.35;35.77;102027.56;5100394;28;20032;-76
2022/08/12 05:52:15;;;;;;;5.82;4.55;;;;;;;31.12;34.25;102029.81;5094744;28;20059;-76
2022/08/12 05:54:43;;;;;;;5.28;4.53;;;;;;;31.00;34.73;102028.88;5094794;28;20210;-75
2022/08/12 05:57:10;;;;;;;13.60;4.63;;;;;;;30.86;34.65;102035.38;5113732;28;20479;-75
2022/08/12 05:59:37;;;;;;;5.75;3.90;;;;;;;30.88;34.34;102030.69;5086140;28;20024;-76
2022/08/12 06:02:06;;;;;;;4.80;4.10;;;;;;;31.02;34.33;102034.16;5097962;28;20030;-76
2022/08/12 06:04:32;;;;;;;9.52;4.20;;;;;;;31.21;34.20;102031.75;5077350;28;20028;-76
2022/08/12 06:06:58;;;;;;;8.32;3.97;;;;;;;31.53;33.37;102030.16;5102543;28;20028;-76
2022/08/12 06:09:25;;;;;;;6.97;4.00;;;;;;;30.96;33.79;102025.56;5080536;28;20026;-76
2022/08/12 06:11:50;;;;;;;7.55;3.63;;;;;;;31.81;32.87;102034.22;5086836;28;20022;-76
2022/08/12 06:14:16;;;;;;;6.10;4.25;;;;;;;31.80;32.23;102032.47;5100632;28;20032;-76
2022/08/12 06:16:42;;;;;;;7.20;4.13;;;;;;;31.80;32.69;102027.06;5101267;28;20143;-75
2022/08/12 06:19:09;;;;;;;11.45;3.40;;;;;;;32.24;32.07;102040.63;5086576;28;20015;-77
2022/08/12 06:21:36;;;;;;;9.45;4.40;;;;;;;31.77;32.80;102035.44;5078409;28;20480;-77
2022/08/12 06:24:02;;;;;;;8.13;4.10;;;;;;;31.84;32.60;102033.94;5107530;28;20024;-77
2022/08/12 06:26:28;;;;;;;5.10;3.70;;;;;;;30.82;33.53;102031.19;5093418;28;20028;-77
2022/08/12 06:28:55;;;;;;;13.77;4.47;;;;;;;29.90;35.16;102039.84;5086185;28;20034;-77
2022/08/12 06:31:21;;;;;;;5.45;4.10;;;;;;;30.53;33.58;102026.22;5104219;28;20040;-77
2022/08/12 06:33:48;;;;;;;4.75;4.25;;;;;;;31.83;32.36;102032.22;5083399;28;20061;-76
2022/08/12 06:36:16;;;;;;;8.80;4.18;;;;;;;31.95;31.96;102025.81;5083319;28;20035;-76
2022/08/12 06:38:43;;;;;;;6.03;3.92;;;;;;;30.37;34.28;102022.94;5100099;28;20146;-76
2022/08/12 06:43:55;;;;;;;10.52;4.65;;;;;;;31.05;33.19;102021.31;5092387;28;20081;-77
2022/08/12 06:46:21;;;;;;;7.97;3.80;;;;;;;30.56;33.89;102020.56;5082914;28;20117;-77
2022/08/12 06:48:48;;;;;;;13.05;5.25;;;;;;;31.24;33.28;102015.31;5081556;28;20047;-77
2022/08/12 06:51:14;;;;;;;8.27;3.75;;;;;;;31.34;33.05;102014.56;5091804;28;20024;-77
2022/08/12 06:53:42;;;;;;;9.93;4.32;;;;;;;31.59;33.03;102025.16;5094857;28;20031;-77
2022/08/12 06:56:08;;;;;;;9.93;4.05;;;;;;;32.00;32.13;102017.34;5093439;28;20475;-77
2022/08/12 06:58:38;;;;;;;10.15;4.13;;;;;;;32.04;32.09;102026.03;5083724;28;20043;-76
2022/08/12 07:01:05;;;;;;;11.50;4.22;;;;;;;32.24;32.14;102019.84;5085269;28;20489;-77
2022/08/12 07:03:31;;;;;;;6.88;4.07;;;;;;;32.53;31.24;102012.94;5075450;28;20031;-76
2022/08/12 07:06:05;;;;;;;8.18;4.18;;;;;;;33.69;29.27;102016.41;5091740;28;20027;-77
2022/08/12 07:08:32;;;;;;;5.00;3.85;;;;;;;33.69;29.09;102017.28;5074293;28;20460;-77
2022/08/12 07:11:01;;;;;;;6.45;4.53;;;;;;;36.43;26.78;102026.50;5083999;28;20035;-77
2022/08/12 07:13:42;;;;;;;6.65;3.65;;;;;;;38.17;24.17;102020.88;5104243;28;20035;-77
2022/08/12 07:16:10;;;;;;;5.85;4.45;;;;;;;38.80;22.19;102022.06;5091074;28;20426;-77
2022/08/12 07:18:36;;;;;;;5.70;3.75;;;;;;;37.85;23.49;102019.78;5086666;28;20127;-77
2022/08/12 07:21:05;;;;;;;6.80;3.67;;;;;;;39.90;21.00;102028.63;5098626;28;20039;-77
2022/08/12 07:23:32;;;;;;;8.00;4.35;;;;;;;39.80;21.53;102023.34;5075051;28;20096;-77
2022/08/12 07:26:00;;;;;;;7.30;4.18;;;;;;;40.96;20.24;102028.75;5085628;28;20034;-77
2022/08/12 07:28:28;;;;;;;6.88;4.53;;;;;;;41.47;20.06;102027.13;5112731;28;20060;-77
2022/08/12 07:30:55;;;;;;;7.50;4.10;;;;;;;42.65;20.05;102026.78;5104208;28;20108;-77
2022/08/12 07:33:23;;;;;;;6.18;3.75;;;;;;;43.57;17.61;102035.78;5075186;28;20561;-78
2022/08/12 07:35:51;;;;;;;6.68;3.63;;;;;;;43.86;19.12;102039.22;5096177;28;20074;-77
2022/08/12 07:38:24;;;;;;;3.33;3.03;;;;;;;44.01;18.88;102042.66;5087396;28;20032;-77
2022/08/12 07:41:04;;;;;;;5.30;3.72;;;;;;;44.21;17.14;102036.31;5089728;28;20038;-78
2022/08/12 07:43:32;;;;;;;7.32;3.72;;;;;;;43.94;18.61;102036.31;5086345;28;20091;-77
2022/08/12 07:45:59;;;;;;;8.38;3.80;;;;;;;45.29;16.79;102031.47;5076225;28;20150;-78
2022/08/12 07:48:25;;;;;;;7.38;3.70;;;;;;;42.34;19.02;102037.09;5079217;28;20038;-76
2022/08/12 07:50:52;;;;;;;7.43;3.63;;;;;;;42.91;18.55;102042.63;5091370;28;20036;-76
2022/08/12 07:53:18;;;;;;;8.27;3.67;;;;;;;43.84;18.65;102038.56;5074581;28;20380;-78
2022/08/12 07:55:44;;;;;;;4.28;3.53;;;;;;;42.87;18.13;102036.69;5074497;28;20088;-79
2022/08/12 07:58:09;;;;;;;4.55;3.45;;;;;;;44.80;17.28;102040.13;5085065;28;20476;-78
2022/08/12 08:00:38;;;;;;;12.10;3.83;;;;;;;46.33;15.41;102040.41;5093564;28;20028;-79
2022/08/12 08:03:04;;;;;;;8.00;3.67;;;;;;;45.93;15.17;102042.63;5093002;28;20536;-78
2022/08/12 08:05:45;;;;;;;3.90;3.50;;;;;;;44.10;17.32;102045.22;5072965;28;20115;-78
2022/08/12 08:08:25;;;;;;;4.45;3.90;;;;;;;43.81;18.95;102036.25;5074167;28;20393;-78
2022/08/12 08:12:52;;;;;;;6.80;3.50;;;;;;;45.52;15.34;102047.53;5106005;28;20035;-78
2022/08/12 08:13:40;;;;;;;4.55;3.85;;;;;;;44.38;17.17;102048.63;5093346;28;20024;-78
2022/08/12 08:16:06;;;;;;;4.40;4.00;;;;;;;43.41;17.85;102038.88;5072565;28;20035;-78
2022/08/12 08:18:32;;;;;;;7.90;3.60;;;;;;;45.37;16.88;102039.50;5097152;28;20047;-78
2022/08/12 08:20:57;;;;;;;4.63;3.63;;;;;;;45.13;17.08;102038.34;5075161;28;20392;-79
2022/08/12 08:24:13;;;;;;;4.32;3.92;;;;;;;45.79;16.67;102033.56;5088575;28;20053;-79
2022/08/12 08:26:09;;;;;;;7.05;3.42;;;;;;;45.40;16.48;102039.91;5104811;28;20035;-79
2022/08/12 08:28:35;;;;;;;6.65;4.03;;;;;;;46.93;15.60;102041.72;5095356;28;20034;-78
2022/08/12 08:31:00;;;;;;;7.93;3.63;;;;;;;46.73;15.39;102042.81;5084983;28;20024;-79
2022/08/12 08:33:26;;;;;;;4.90;3.15;;;;;;;46.67;15.38;102042.88;5087931;28;20031;-78
2022/08/12 08:35:52;;;;;;;9.10;3.30;;;;;;;45.97;15.72;102039.19;5083231;28;20537;-78
2022/08/12 08:38:17;;;;;;;7.00;4.05;;;;;;;47.46;14.72;102036.63;5099937;28;20031;-79
2022/08/12 08:43:31;;;;;;;8.85;4.15;;;;;;;45.44;16.08;102044.97;5115308;28;20038;-78
2022/08/12 08:45:57;;;;;;;8.13;3.88;;;;;;;44.87;16.07;102046.44;5092697;28;20051;-78
2022/08/12 08:48:23;;;;;;;5.63;3.80;;;;;;;45.08;16.17;102050.03;5106420;28;20024;-78
2022/08/12 08:50:50;;;;;;;4.63;3.22;;;;;;;47.04;14.67;102042.91;5085402;28;20028;-78
2022/08/12 08:53:16;;;;;;;5.05;3.72;;;;;;;44.27;16.94;102060.31;5085140;28;20442;-78
2022/08/12 08:55:42;;;;;;;6.93;3.33;;;;;;;46.02;16.09;102046.81;5076812;28;20039;-78
2022/08/12 08:58:08;;;;;;;7.53;3.20;;;;;;;47.32;14.55;102049.78;5076642;28;20024;-78
2022/08/12 09:00:41;;;;;;;6.22;2.97;;;;;;;45.32;16.52;102050.38;5102371;28;20070;-79
2022/08/12 09:03:07;;;;;;;5.32;3.10;;;;;;;46.14;17.56;102038.63;5082883;28;20501;-78
2022/08/12 09:05:34;;;;;;;8.45;3.55;;;;;;;45.22;15.88;102037.06;5110682;28;20027;-79
2022/08/12 09:08:02;;;;;;;11.13;3.38;;;;;;;47.98;14.57;102047.16;5089832;28;20023;-78
2022/08/12 09:10:28;;;;;;;4.10;3.15;;;;;;;46.87;14.92;102037.13;5088437;28;20050;-79
2022/08/12 09:15:38;;;;;;;6.50;3.35;;;;;;;47.21;16.50;102045.88;5104308;28;20035;-79
2022/08/12 09:18:06;;;;;;;4.15;3.20;;;;;;;47.49;15.21;102038.94;5084393;28;20024;-78
2022/08/12 09:20:33;;;;;;;6.60;3.65;;;;;;;47.84;13.75;102035.44;5105686;28;20032;-78
2022/08/12 09:23:01;;;;;;;4.75;2.47;;;;;;;48.04;14.80;102035.97;5077958;28;20157;-79
2022/08/12 09:25:32;;;;;;;6.32;2.92;;;;;;;47.77;13.64;102034.72;5106965;28;20525;-79
2022/08/12 09:27:58;;;;;;;6.68;2.47;;;;;;;48.81;14.76;102036.13;5085028;28;20438;-78
2022/08/12 09:30:24;;;;;;;2.75;2.30;;;;;;;49.32;12.77;102033.59;5104062;28;20147;-78
2022/08/12 09:32:50;;;;;;;4.88;2.78;;;;;;;46.20;14.68;102040.50;5102972;28;20028;-79
2022/08/12 09:35:39;;;;;;;5.82;2.80;;;;;;;45.83;15.18;102032.06;5077410;28;20031;-79
2022/08/12 09:38:05;;;;;;;7.50;3.10;;;;;;;45.69;15.45;102032.13;5079614;28;20096;-78
2022/08/12 09:40:31;;;;;;;5.68;2.90;;;;;;;46.42;15.12;102024.38;5077305;28;20116;-78
2022/08/12 09:45:45;;;;;;;6.07;2.50;;;;;;;46.95;14.83;102020.22;5096933;28;20105;-78
2022/08/12 09:48:15;;;;;;;5.10;2.33;;;;;;;47.03;13.84;102025.47;5077535;28;20024;-78
2022/08/12 09:50:45;;;;;;;4.30;2.30;;;;;;;46.28;15.12;102009.00;5076555;28;20444;-78
2022/08/12 09:53:16;;;;;;;5.80;2.63;;;;;;;45.61;15.36;102018.59;5083541;28;20077;-78
2022/08/12 09:55:50;;;;;;;7.20;2.83;;;;;;;45.80;15.21;102021.47;5074175;28;20051;-77
2022/08/12 09:58:15;;;;;;;4.25;2.38;;;;;;;46.63;14.21;102019.53;5099865;28;20023;-78
2022/08/12 10:00:46;;;;;;;3.70;2.50;;;;;;;45.65;15.29;102008.81;5108829;28;20544;-77
2022/08/12 10:03:13;;;;;;;5.55;2.42;;;;;;;45.56;15.02;102011.00;5082825;28;20031;-77
2022/08/12 10:05:42;;;;;;;5.05;2.95;;;;;;;44.21;16.49;102003.25;5102455;28;20020;-79
2022/08/12 10:08:09;;;;;;;6.72;2.50;;;;;;;44.88;18.00;102000.44;5093080;28;20383;-78
2022/08/12 10:13:42;;;;;;;3.45;2.30;;;;;;;45.29;16.03;101999.22;5105282;28;20122;-78
2022/08/12 10:16:13;;;;;;;4.70;2.17;;;;;;;46.31;14.53;102000.28;5075861;28;20480;-77
2022/08/12 10:18:43;;;;;;;;;;;;;;;46.75;13.61;101991.97;5077462;28;20108;-78
2022/08/12 10:21:19;;;;;;;5.35;2.10;;;;;;;45.82;15.74;101987.00;5096074;28;19915;-77
2022/08/12 10:23:47;;;;;;;5.72;2.70;;;;;;;44.19;15.33;101988.88;5078036;28;20024;-78
2022/08/12 10:31:52;;;;;;;2.30;2.10;;;;;;;42.03;16.31;101985.28;5102490;28;20075;-77
2022/08/12 10:34:21;;;;;;;8.15;2.15;;;;;;;44.53;15.99;101984.16;5082424;28;20048;-78
2022/08/12 10:36:48;;;;;;;3.75;2.13;;;;;;;43.92;14.63;101977.84;5082281;28;20115;-78
2022/08/12 10:39:16;;;;;;;4.22;2.10;;;;;;;43.98;15.37;101971.50;5082388;28;20028;-78
2022/08/12 10:44:27;;;;;;;5.07;1.85;;;;;;;44.12;14.86;101971.47;5098691;28;20104;-78
2022/08/12 10:46:54;;;;;;;4.43;2.28;;;;;;;42.42;15.93;101967.47;5081691;28;20036;-77
2022/08/12 10:49:33;;;;;;;4.05;2.38;;;;;;;41.40;16.47;101958.47;5074591;28;20016;-77
2022/08/12 10:52:02;;;;;;;10.45;2.65;;;;;;;43.82;15.40;101966.38;5083483;28;20589;-78
2022/08/12 10:54:28;;;;;;;4.65;2.67;;;;;;;43.71;15.20;101963.19;5092024;28;20027;-78
2022/08/12 10:56:56;;;;;;;5.35;1.90;;;;;;;42.28;15.54;101957.41;5081157;28;20631;-77
2022/08/12 10:59:23;;;;;;;7.07;2.17;;;;;;;43.63;15.29;101963.38;5076498;28;20019;-77
2022/08/12 11:01:51;;;;;;;4.00;1.80;;;;;;;43.90;14.22;101952.44;5099323;28;20112;-78
2022/08/12 11:04:17;;;;;;;4.65;3.13;;;;;;;43.42;14.53;101949.78;5080625;28;20023;-78
2022/08/12 11:06:47;;;;;;;5.30;2.10;;;;;;;44.51;15.22;101953.25;5099892;28;20034;-78
2022/08/12 11:09:23;;;;;;;8.73;2.35;;;;;;;44.70;14.53;101940.50;5088164;28;20476;-77
2022/08/12 11:11:49;;;;;;;5.68;2.10;;;;;;;44.47;13.59;101941.78;5075115;28;20023;-77
2022/08/12 11:14:27;;;;;;;8.55;2.20;;;;;;;43.58;14.39;101943.91;5090954;28;20045;-78
2022/08/12 11:16:56;;;;;;;7.38;2.92;;;;;;;44.93;14.06;101940.00;5078666;28;20051;-77
2022/08/12 11:19:31;;;;;;;4.60;2.38;;;;;;;44.64;13.01;101936.69;5093483;28;20035;-77
2022/08/12 11:21:57;;;;;;;6.05;2.10;;;;;;;45.25;13.63;101926.25;5075898;28;20034;-78
2022/08/12 11:24:24;;;;;;;2.30;1.90;;;;;;;43.70;13.78;101931.22;5091392;28;20020;-78
2022/08/12 11:26:50;;;;;;;10.20;2.30;;;;;;;44.60;13.39;101916.13;5097770;28;20502;-77
2022/08/12 11:29:21;;;;;;;5.88;2.33;;;;;;;43.87;13.90;101919.81;5090929;28;20506;-79
2022/08/12 11:31:47;;;;;;;6.88;2.13;;;;;;;44.77;13.42;101918.44;5074875;28;20035;-78
2022/08/12 11:34:12;;;;;;;3.28;2.10;;;;;;;44.97;13.42;101919.19;5074800;28;20550;-77
2022/08/12 11:36:38;;;;;;;3.25;1.90;;;;;;;43.19;13.66;101912.50;5093225;28;20076;-78
2022/08/12 11:39:04;;;;;;;5.63;1.90;;;;;;;44.00;12.46;101914.31;5105455;28;20019;-78
2022/08/12 11:41:31;;;;;;;6.70;2.28;;;;;;;44.47;12.20;101902.38;5078013;28;20023;-77
2022/08/12 11:43:56;;;;;;;2.38;1.88;;;;;;;43.44;12.86;101909.16;5071303;28;20024;-77
2022/08/12 11:46:22;;;;;;;2.00;1.70;;;;;;;42.88;13.95;101900.94;5095470;28;20055;-76
2022/08/12 11:48:47;;;;;;;7.28;2.70;;;;;;;43.83;12.96;101907.50;5080495;28;20367;-77
2022/08/12 11:51:12;;;;;;;3.15;2.00;;;;;;;43.55;12.46;101914.91;5073873;28;20051;-77
2022/08/12 11:53:38;;;;;;;4.55;2.08;;;;;;;44.71;11.95;101903.59;5100625;28;20162;-77
2022/08/12 11:56:07;;;;;;;6.53;1.90;;;;;;;43.86;12.51;101901.59;5085117;28;20407;-77
2022/08/12 11:58:33;;;;;;;3.00;1.73;;;;;;;44.96;11.98;101889.91;5099966;28;20034;-78
2022/08/12 12:00:58;;;;;;;5.13;1.80;;;;;;;45.90;11.29;101894.81;5080388;28;20024;-77
2022/08/12 12:03:24;;;;;;;6.90;2.10;;;;;;;43.92;12.15;101900.75;5083425;28;20031;-77
2022/08/12 12:05:50;;;;;;;4.13;1.70;;;;;;;45.80;11.96;101891.72;5105937;28;20031;-78
2022/08/12 12:08:26;;;;;;;6.22;2.05;;;;;;;47.12;10.92;101886.84;5090178;28;20031;-78
2022/08/12 12:10:52;;;;;;;7.97;2.20;;;;;;;47.20;11.01;101880.97;5094384;28;20032;-78
2022/08/12 12:13:19;;;;;;;3.53;1.83;;;;;;;46.15;10.86;101885.66;5111989;28;20149;-78
2022/08/12 12:15:45;;;;;;;6.60;1.95;;;;;;;47.46;10.63;101881.63;5098589;28;20032;-77
2022/08/12 12:18:25;;;;;;;6.68;1.80;;;;;;;47.80;10.37;101884.72;5078719;28;20403;-78
2022/08/12 12:20:52;;;;;;;3.08;1.88;;;;;;;47.17;10.50;101881.44;5099342;28;20032;-77
2022/08/12 12:23:18;;;;;;;4.15;1.80;;;;;;;47.23;9.92;101874.97;5079718;28;20026;-76
2022/08/12 12:25:44;;;;;;;6.13;2.08;;;;;;;45.09;11.33;101888.19;5079600;28;20031;-77
2022/08/12 12:28:09;;;;;;;2.72;1.80;;;;;;;45.38;11.23;101876.53;5095786;28;20031;-77
2022/08/12 12:30:35;;;;;;;3.08;2.20;;;;;;;45.95;10.97;101870.13;5079994;28;20468;-78
2022/08/12 12:33:01;;;;;;;3.30;2.13;;;;;;;45.52;11.39;101862.63;5089167;28;20080;-77
2022/08/12 12:35:26;;;;;;;6.40;2.10;;;;;;;46.13;10.82;101866.53;5091372;28;20057;-78
2022/08/12 12:37:57;;;;;;;4.65;2.10;;;;;;;45.43;11.29;101863.97;5079604;28;20036;-78
2022/08/12 12:40:24;;;;;;;4.47;2.03;;;;;;;45.23;11.36;101856.66;5098217;28;20020;-78
2022/08/12 12:42:50;;;;;;;1.83;1.65;;;;;;;44.91;12.06;101867.66;5079098;27;20019;-78
2022/08/12 12:45:16;;;;;;;3.63;1.90;;;;;;;45.45;11.45;101853.53;5104195;27;20322;-77
2022/08/12 12:48:01;;;;;;;4.47;2.10;;;;;;;45.75;10.71;101864.75;5079559;28;20024;-78
2022/08/12 12:50:36;;;;;;;4.63;2.03;;;;;;;44.89;11.76;101856.03;5092401;28;20133;-77
2022/08/12 12:53:04;;;;;;;6.25;2.00;;;;;;;44.99;11.36;101858.31;5101153;28;20491;-77
2022/08/12 12:55:34;;;;;;;5.35;1.90;;;;;;;46.17;11.47;101862.25;5106934;28;20019;-77
2022/08/12 12:58:00;;;;;;;2.38;1.83;;;;;;;45.99;11.03;101853.94;5083583;27;20023;-78
2022/08/12 13:00:26;;;;;;;5.88;2.10;;;;;;;46.64;10.95;101842.38;5102461;27;20572;-78
2022/08/12 13:02:56;;;;;;;5.45;2.03;;;;;;;45.67;11.64;101835.56;5081755;28;20020;-78
2022/08/12 13:05:30;;;;;;;4.18;2.03;;;;;;;45.91;11.49;101846.81;5091302;28;20020;-78
2022/08/12 13:07:58;;;;;;;2.20;1.90;;;;;;;44.85;11.66;101839.06;5109532;28;20031;-78
2022/08/12 13:10:24;;;;;;;5.10;2.10;;;;;;;45.31;12.05;101848.13;5106549;28;20027;-78
2022/08/12 13:12:51;;;;;;;4.78;2.10;;;;;;;44.93;11.57;101843.50;5102603;28;20016;-77
2022/08/12 13:15:17;;;;;;;4.18;2.00;;;;;;;45.44;12.38;101833.38;5082423;28;20028;-77
2022/08/12 13:17:49;;;;;;;8.48;2.13;;;;;;;44.87;11.82;101838.84;5088778;28;20453;-77
2022/08/12 13:20:16;;;;;;;5.90;2.13;;;;;;;44.93;12.01;101837.97;5079341;28;20020;-77